Time;durP1;ratioP1;P1;durP2;ratioP2;P2;SDS_P1;SDS_P2;PMS_P1;PMS_P2;Temp;Humidity;BMP_temperature;BMP_pressure;BME280_temperature;BME280_humidity;BME280_pressure;Samples;Min_cycle;Max_cycle;Signal;HPM_P1;HPM_P2
2023/06/11 00:02:06;;;;;;;3.00;2.80;;;18.70;91.40;;;;;;5018106;28;20204;-70
2023/06/11 00:04:34;;;;;;;3.73;2.93;;;18.60;91.60;;;;;;5023069;28;20200;-70
2023/06/11 00:07:02;;;;;;;3.80;3.27;;;18.60;91.70;;;;;;5029529;28;20416;-71
2023/06/11 00:09:28;;;;;;;3.63;2.67;;;18.60;91.80;;;;;;5029550;28;20426;-71
2023/06/11 00:11:54;;;;;;;3.10;2.83;;;18.50;91.80;;;;;;5029964;28;20465;-70
2023/06/11 00:14:21;;;;;;;4.90;2.83;;;18.50;92.00;;;;;;5019738;28;20561;-70
2023/06/11 00:16:47;;;;;;;5.67;2.70;;;18.40;92.00;;;;;;5028115;28;20420;-69
2023/06/11 00:19:13;;;;;;;5.10;3.20;;;18.30;92.20;;;;;;5029888;28;20721;-69
2023/06/11 00:21:43;;;;;;;3.87;3.47;;;18.30;92.20;;;;;;5029961;28;20425;-69
2023/06/11 00:24:11;;;;;;;3.50;3.20;;;18.30;92.40;;;;;;5036318;28;20479;-68
2023/06/11 00:26:37;;;;;;;3.60;2.50;;;18.30;92.50;;;;;;5043966;28;20414;-69
2023/06/11 00:29:02;;;;;;;2.63;2.43;;;18.20;92.60;;;;;;5029733;28;20493;-70
2023/06/11 00:31:28;;;;;;;4.20;2.87;;;18.20;92.70;;;;;;5020412;28;20246;-70
2023/06/11 00:33:53;;;;;;;4.27;3.20;;;18.10;92.80;;;;;;5027749;28;20672;-70
2023/06/11 00:36:20;;;;;;;3.57;2.97;;;18.10;93.00;;;;;;5027647;28;20701;-70
2023/06/11 00:38:48;;;;;;;4.83;3.93;;;18.00;93.10;;;;;;5029139;28;20199;-70
2023/06/11 00:41:14;;;;;;;3.53;2.40;;;18.00;93.30;;;;;;5028463;28;20524;-70
2023/06/11 00:43:40;;;;;;;4.60;2.60;;;17.90;93.40;;;;;;5029548;28;20416;-70
2023/06/11 00:46:10;;;;;;;3.73;2.50;;;17.90;93.60;;;;;;5030094;28;20749;-69
2023/06/11 00:48:40;;;;;;;4.23;2.90;;;17.80;93.70;;;;;;5021328;28;20621;-70
2023/06/11 00:51:06;;;;;;;3.27;2.63;;;17.80;93.80;;;;;;5021660;28;20903;-69
2023/06/11 00:53:32;;;;;;;6.53;3.27;;;17.70;93.80;;;;;;5028217;28;20454;-69
2023/06/11 00:55:57;;;;;;;8.07;3.47;;;17.70;94.00;;;;;;5029604;28;20488;-71
2023/06/11 00:58:23;;;;;;;2.93;2.60;;;17.70;94.00;;;;;;5029622;28;20804;-70
2023/06/11 01:00:55;;;;;;;3.70;2.40;;;17.80;94.00;;;;;;5029460;28;20231;-71
2023/06/11 01:03:26;;;;;;;3.47;3.07;;;17.70;94.00;;;;;;5051392;23;20520;-70
2023/06/11 01:06:17;;;;;;;6.60;2.90;;;17.70;94.20;;;;;;5024443;28;20456;-68
2023/06/11 01:08:44;;;;;;;3.13;2.67;;;17.60;94.10;;;;;;5022994;28;20421;-70
2023/06/11 01:11:21;;;;;;;5.53;2.73;;;17.60;94.30;;;;;;5027736;28;20422;-67
2023/06/11 01:13:47;;;;;;;3.77;2.03;;;17.60;94.30;;;;;;5039662;28;20982;-70
2023/06/11 01:16:24;;;;;;;3.00;2.70;;;17.60;94.40;;;;;;5021780;28;20625;-69
2023/06/11 01:19:03;;;;;;;3.70;2.53;;;17.50;94.40;;;;;;5026831;28;20817;-70
2023/06/11 01:21:39;;;;;;;6.73;2.93;;;17.50;94.50;;;;;;5028772;28;20504;-70
2023/06/11 01:24:40;;;;;;;3.33;2.57;;;17.40;94.70;;;;;;5032790;28;20451;-68
2023/06/11 01:27:37;;;;;;;6.10;2.93;;;17.30;94.90;;;;;;5031353;28;20948;-70
2023/06/11 01:30:05;;;;;;;9.53;3.67;;;17.30;95.20;;;;;;5019810;28;20928;-69
2023/06/11 01:32:32;;;;;;;2.73;2.50;;;17.30;95.30;;;;;;5034035;28;20483;-70
2023/06/11 01:35:04;;;;;;;5.33;3.47;;;17.20;95.30;;;;;;5031722;28;20815;-70
2023/06/11 01:37:32;;;;;;;3.90;3.50;;;17.10;95.50;;;;;;5031025;28;20418;-69
2023/06/11 01:39:58;;;;;;;6.77;3.77;;;17.10;95.60;;;;;;5033847;28;20404;-69
2023/06/11 01:42:23;;;;;;;5.23;3.60;;;17.10;95.60;;;;;;5032599;28;20965;-69
2023/06/11 01:44:49;;;;;;;5.30;3.90;;;17.10;95.80;;;;;;5033579;28;20210;-68
2023/06/11 01:47:15;;;;;;;4.47;3.40;;;17.00;96.00;;;;;;5033546;28;20182;-70
2023/06/11 01:49:41;;;;;;;4.87;3.00;;;17.00;96.10;;;;;;5033629;28;20178;-70
2023/06/11 01:52:07;;;;;;;3.47;3.13;;;16.90;96.30;;;;;;5029748;28;20202;-70
2023/06/11 01:54:32;;;;;;;7.70;3.17;;;16.90;96.30;;;;;;5030874;28;20427;-70
2023/06/11 01:56:58;;;;;;;4.10;3.00;;;16.90;96.50;;;;;;5033578;28;20299;-70
2023/06/11 01:59:24;;;;;;;4.73;3.03;;;16.80;96.50;;;;;;5015630;28;20171;-70
2023/06/11 02:01:52;;;;;;;3.10;2.80;;;16.80;96.60;;;;;;5033682;28;20178;-70
2023/06/11 02:04:22;;;;;;;5.97;2.60;;;16.70;96.70;;;;;;5033148;28;20220;-70
2023/06/11 02:06:48;;;;;;;3.33;2.97;;;16.70;96.70;;;;;;5048343;28;20413;-70
2023/06/11 02:09:14;;;;;;;4.60;2.90;;;16.70;96.90;;;;;;5045262;28;20916;-68
2023/06/11 02:11:40;;;;;;;3.90;3.40;;;16.60;97.00;;;;;;5031475;28;20461;-69
2023/06/11 02:14:06;;;;;;;4.50;2.57;;;16.60;97.20;;;;;;5033092;28;20461;-70
2023/06/11 02:16:31;;;;;;;3.43;3.13;;;16.50;97.30;;;;;;5031974;28;20172;-70
2023/06/11 02:18:57;;;;;;;6.97;3.30;;;16.50;97.40;;;;;;5045097;28;20170;-68
2023/06/11 02:21:22;;;;;;;5.83;2.63;;;16.40;97.70;;;;;;5033275;28;20187;-68
2023/06/11 02:23:48;;;;;;;4.43;2.60;;;16.40;97.70;;;;;;5032680;28;20195;-67
2023/06/11 02:26:14;;;;;;;4.50;2.50;;;16.40;97.80;;;;;;5029949;28;20881;-69
2023/06/11 02:28:40;;;;;;;3.30;2.93;;;16.40;97.90;;;;;;5031991;28;20176;-70
2023/06/11 02:31:05;;;;;;;2.53;2.33;;;16.30;98.00;;;;;;5031547;28;20654;-69
2023/06/11 02:33:31;;;;;;;8.13;2.93;;;16.30;98.00;;;;;;5032874;28;20192;-70
2023/06/11 02:35:57;;;;;;;2.40;2.20;;;16.20;98.20;;;;;;5031397;28;20191;-68
2023/06/11 02:38:22;;;;;;;3.27;2.83;;;16.20;98.40;;;;;;5032868;28;20232;-70
2023/06/11 02:40:48;;;;;;;2.70;2.50;;;16.10;98.50;;;;;;5033168;28;20235;-69
2023/06/11 02:43:14;;;;;;;3.87;3.10;;;16.10;98.60;;;;;;5032886;28;20200;-70
2023/06/11 02:45:39;;;;;;;3.60;2.53;;;16.10;98.60;;;;;;5032747;28;20724;-69
2023/06/11 02:48:05;;;;;;;2.73;2.53;;;16.10;98.60;;;;;;5032597;28;20506;-70
2023/06/11 02:50:31;;;;;;;2.40;2.20;;;16.00;98.70;;;;;;5032706;28;20518;-69
2023/06/11 02:52:56;;;;;;;6.10;2.90;;;16.00;98.70;;;;;;5031037;28;20196;-69
2023/06/11 02:55:22;;;;;;;3.63;2.10;;;16.00;98.80;;;;;;5032703;28;20173;-69
2023/06/11 02:57:47;;;;;;;4.23;2.80;;;16.00;98.80;;;;;;5033258;28;20164;-71
2023/06/11 03:00:13;;;;;;;5.43;2.53;;;16.00;98.90;;;;;;5046251;28;20229;-68
2023/06/11 03:02:39;;;;;;;3.90;2.53;;;15.90;98.90;;;;;;5032444;28;20812;-70
2023/06/11 03:05:05;;;;;;;3.77;2.73;;;15.90;99.00;;;;;;5044911;28;20176;-69
2023/06/11 03:07:31;;;;;;;4.23;2.77;;;15.90;99.10;;;;;;5032070;28;20537;-70
2023/06/11 03:09:57;;;;;;;2.33;2.00;;;15.90;99.50;;;;;;5031555;28;20418;-68
2023/06/11 03:12:22;;;;;;;2.90;2.70;;;15.90;99.60;;;;;;5031955;28;20210;-69
2023/06/11 03:14:48;;;;;;;7.30;2.90;;;15.80;99.90;;;;;;5031794;28;20203;-69
2023/06/11 03:17:14;;;;;;;4.20;2.90;;;15.70;99.90;;;;;;5047279;28;20176;-69
2023/06/11 03:19:39;;;;;;;4.03;2.87;;;15.70;99.90;;;;;;5031956;28;20172;-69
2023/06/11 03:22:05;;;;;;;2.90;2.60;;;15.70;99.90;;;;;;5032268;28;20197;-69
2023/06/11 03:24:30;;;;;;;2.97;2.53;;;15.60;99.90;;;;;;5031781;28;20200;-69
2023/06/11 03:26:56;;;;;;;4.10;2.90;;;15.60;99.90;;;;;;5046968;28;20183;-68
2023/06/11 03:29:22;;;;;;;2.60;2.23;;;15.60;99.90;;;;;;5026367;28;20181;-70
2023/06/11 03:31:47;;;;;;;5.10;2.40;;;15.50;99.90;;;;;;5031813;28;20207;-70
2023/06/11 03:34:13;;;;;;;3.63;2.27;;;15.50;99.90;;;;;;5030505;28;20280;-69
2023/06/11 03:36:38;;;;;;;3.50;2.53;;;15.50;99.90;;;;;;5030106;28;20182;-68
2023/06/11 03:39:04;;;;;;;3.93;2.80;;;15.50;99.90;;;;;;5030478;28;20682;-70
2023/06/11 03:41:30;;;;;;;4.70;2.70;;;15.50;99.90;;;;;;5031574;28;20192;-69
2023/06/11 03:43:55;;;;;;;3.67;2.50;;;15.40;99.90;;;;;;5031168;28;20594;-69
2023/06/11 03:46:22;;;;;;;4.17;2.60;;;15.40;99.90;;;;;;5030098;28;20650;-69
2023/06/11 03:48:48;;;;;;;4.07;2.30;;;15.40;99.90;;;;;;5031325;28;20771;-69
2023/06/11 03:51:15;;;;;;;2.73;2.50;;;15.40;99.90;;;;;;5031262;28;20449;-69
2023/06/11 03:53:41;;;;;;;5.33;2.70;;;15.40;99.90;;;;;;5029948;28;20302;-69
2023/06/11 03:56:06;;;;;;;4.07;3.40;;;15.40;99.90;;;;;;5031461;28;20924;-70
2023/06/11 03:58:32;;;;;;;2.70;2.40;;;15.50;99.90;;;;;;5031899;28;20665;-70
2023/06/11 04:00:58;;;;;;;3.17;2.53;;;15.50;99.90;;;;;;5031574;28;20164;-69
2023/06/11 04:03:23;;;;;;;3.13;2.50;;;15.50;99.90;;;;;;5031463;28;20211;-69
2023/06/11 04:05:49;;;;;;;3.53;2.87;;;15.50;99.90;;;;;;5031101;28;20495;-69
2023/06/11 04:08:15;;;;;;;2.53;2.33;;;15.60;99.90;;;;;;5030078;28;20267;-69
2023/06/11 04:10:41;;;;;;;3.17;2.77;;;15.60;99.90;;;;;;5025883;28;20534;-70
2023/06/11 04:13:06;;;;;;;4.27;2.50;;;15.70;99.90;;;;;;5029723;28;20644;-68
2023/06/11 04:15:32;;;;;;;4.53;2.60;;;16.00;99.90;;;;;;5031209;28;20193;-69
2023/06/11 04:17:57;;;;;;;2.27;2.07;;;16.80;99.90;;;;;;5043723;28;20171;-69
2023/06/11 04:20:23;;;;;;;3.63;2.43;;;17.80;99.80;;;;;;5030847;28;20181;-69
2023/06/11 04:22:49;;;;;;;3.53;2.70;;;18.70;98.40;;;;;;5031135;28;20184;-70
2023/06/11 04:25:16;;;;;;;5.77;2.50;;;19.30;97.60;;;;;;5030951;28;20223;-69
2023/06/11 04:27:43;;;;;;;3.97;2.27;;;19.90;96.50;;;;;;5029577;28;20178;-68
2023/06/11 04:30:10;;;;;;;3.73;2.67;;;20.10;95.50;;;;;;5031148;28;20462;-70
2023/06/11 04:32:36;;;;;;;2.97;2.30;;;20.40;95.00;;;;;;5029645;28;20487;-70
2023/06/11 04:35:03;;;;;;;4.40;2.50;;;20.60;94.50;;;;;;5029596;28;20450;-70
2023/06/11 04:37:30;;;;;;;3.37;2.17;;;21.00;93.70;;;;;;5030879;28;20413;-70
2023/06/11 04:40:05;;;;;;;3.97;2.23;;;21.00;93.80;;;;;;5029480;28;20420;-70
2023/06/11 04:42:30;;;;;;;5.30;2.00;;;20.50;93.30;;;;;;5030769;28;20414;-68
2023/06/11 04:44:56;;;;;;;3.60;2.43;;;20.60;94.10;;;;;;5030539;28;20433;-69
2023/06/11 04:47:24;;;;;;;4.70;2.37;;;20.80;93.30;;;;;;5030477;28;20183;-69
2023/06/11 04:49:51;;;;;;;4.43;2.40;;;20.10;93.70;;;;;;5029547;28;20175;-69
2023/06/11 04:52:17;;;;;;;3.87;2.40;;;19.90;94.50;;;;;;5030779;28;20464;-70
2023/06/11 04:54:44;;;;;;;4.60;2.40;;;19.60;95.70;;;;;;5030806;28;20460;-69
2023/06/11 04:57:11;;;;;;;2.50;2.30;;;19.80;95.20;;;;;;5033459;28;20543;-69
2023/06/11 04:59:37;;;;;;;3.90;2.03;;;20.20;94.00;;;;;;5034820;28;20413;-68
2023/06/11 05:02:03;;;;;;;3.33;1.97;;;20.20;93.80;;;;;;5033288;28;20416;-69
2023/06/11 05:04:29;;;;;;;7.10;2.63;;;19.90;94.20;;;;;;5034773;28;20280;-68
2023/06/11 05:06:57;;;;;;;3.10;2.10;;;20.20;94.50;;;;;;5033684;28;20981;-69
2023/06/11 05:09:23;;;;;;;4.77;2.03;;;20.60;93.90;;;;;;5050310;28;20799;-70
2023/06/11 05:11:49;;;;;;;2.57;2.37;;;20.90;94.40;;;;;;5033336;28;20449;-70
2023/06/11 05:14:15;;;;;;;3.50;2.50;;;21.70;92.60;;;;;;5034631;28;20219;-70
2023/06/11 05:16:40;;;;;;;2.77;2.27;;;21.50;92.40;;;;;;5035240;28;20224;-70
2023/06/11 05:19:06;;;;;;;2.93;2.33;;;21.00;93.00;;;;;;5034683;28;20178;-69
2023/06/11 05:21:32;;;;;;;3.43;2.23;;;21.50;92.40;;;;;;5034504;28;20216;-69
2023/06/11 05:24:06;;;;;;;3.20;2.07;;;21.20;92.80;;;;;;5034283;28;20474;-67
2023/06/11 05:26:34;;;;;;;2.63;2.40;;;21.80;92.00;;;;;;5034198;28;20263;-68
2023/06/11 05:29:00;;;;;;;2.60;2.40;;;22.20;91.10;;;;;;5034172;28;20431;-69
2023/06/11 05:31:25;;;;;;;2.50;2.20;;;22.10;91.80;;;;;;5032105;28;20949;-69
2023/06/11 05:33:51;;;;;;;2.90;2.43;;;22.50;91.20;;;;;;5037908;28;20193;-69
2023/06/11 05:36:17;;;;;;;2.73;1.80;;;22.30;90.90;;;;;;5029560;28;20182;-69
2023/06/11 05:38:43;;;;;;;2.10;1.90;;;22.80;90.80;;;;;;5032683;28;20163;-69
2023/06/11 05:41:09;;;;;;;3.70;2.70;;;23.40;89.30;;;;;;5034108;28;20166;-69
2023/06/11 05:43:35;;;;;;;3.30;2.70;;;23.20;88.60;;;;;;5048919;28;20803;-68
2023/06/11 05:46:01;;;;;;;4.00;2.90;;;23.30;88.60;;;;;;5034154;28;20803;-68
2023/06/11 05:48:27;;;;;;;3.93;2.10;;;23.40;87.90;;;;;;5033712;28;20416;-68
2023/06/11 05:50:53;;;;;;;3.07;2.37;;;23.30;87.50;;;;;;5033837;28;20780;-68
2023/06/11 05:53:18;;;;;;;4.20;2.30;;;23.50;86.30;;;;;;5033493;28;20206;-69
2023/06/11 05:55:44;;;;;;;4.93;2.40;;;23.20;87.40;;;;;;5033258;28;20177;-68
2023/06/11 05:58:09;;;;;;;3.30;2.23;;;23.10;87.60;;;;;;5033733;28;20174;-69
2023/06/11 06:00:35;;;;;;;3.67;2.53;;;23.30;88.10;;;;;;5032168;28;20182;-69
2023/06/11 06:03:01;;;;;;;5.17;2.00;;;23.40;87.80;;;;;;5033462;28;20574;-69
2023/06/11 06:05:28;;;;;;;3.80;2.53;;;23.20;88.40;;;;;;5033447;28;20179;-69
2023/06/11 06:07:53;;;;;;;2.40;2.20;;;24.20;86.90;;;;;;5032868;28;20699;-68
2023/06/11 06:10:19;;;;;;;4.00;2.57;;;24.60;84.90;;;;;;5029266;28;20426;-69
2023/06/11 06:12:44;;;;;;;5.10;2.50;;;24.20;85.50;;;;;;5036258;28;20195;-70
2023/06/11 06:15:10;;;;;;;4.93;2.10;;;24.60;85.00;;;;;;5039846;28;20672;-69
2023/06/11 06:17:36;;;;;;;3.00;2.70;;;25.10;83.10;;;;;;5032317;28;20235;-69
2023/06/11 06:20:02;;;;;;;2.07;1.87;;;24.70;85.30;;;;;;5021402;28;20180;-69
2023/06/11 06:22:27;;;;;;;3.37;2.57;;;25.20;83.80;;;;;;5026983;28;20186;-69
2023/06/11 06:24:53;;;;;;;4.70;2.33;;;25.50;82.90;;;;;;5031388;28;20215;-68
2023/06/11 06:27:18;;;;;;;3.33;2.70;;;24.80;83.10;;;;;;5028709;28;20658;-69
2023/06/11 06:29:44;;;;;;;2.37;2.17;;;26.00;82.30;;;;;;5032846;28;20616;-69
2023/06/11 06:32:10;;;;;;;3.77;2.43;;;26.60;79.30;;;;;;5032999;28;20203;-68
2023/06/11 06:34:36;;;;;;;2.63;2.43;;;26.20;79.70;;;;;;5041270;28;20207;-69
2023/06/11 06:37:01;;;;;;;4.33;2.90;;;26.40;80.50;;;;;;5031609;28;20172;-69
2023/06/11 06:39:28;;;;;;;6.00;2.97;;;26.20;81.00;;;;;;5029598;28;20418;-68
2023/06/11 06:41:53;;;;;;;4.47;2.63;;;26.30;79.70;;;;;;5032641;28;20179;-68
2023/06/11 06:44:19;;;;;;;3.63;2.47;;;26.70;78.70;;;;;;5032982;28;20445;-69
2023/06/11 06:46:45;;;;;;;4.07;2.50;;;25.80;81.10;;;;;;5032680;28;20759;-69
2023/06/11 06:49:10;;;;;;;2.67;2.40;;;26.70;78.20;;;;;;5031158;28;20244;-68
2023/06/11 06:51:37;;;;;;;2.37;2.17;;;27.20;75.40;;;;;;5032825;28;20292;-69
2023/06/11 06:54:03;;;;;;;4.40;2.23;;;27.70;75.10;;;;;;5032203;28;20218;-68
2023/06/11 06:56:28;;;;;;;2.77;2.50;;;28.10;73.40;;;;;;5032146;28;20834;-69
2023/06/11 06:58:54;;;;;;;2.27;2.13;;;28.00;73.00;;;;;;5046274;28;20275;-70
2023/06/11 07:01:20;;;;;;;2.33;2.13;;;27.80;73.80;;;;;;5032759;28;20175;-70
2023/06/11 07:03:45;;;;;;;6.00;3.17;;;25.60;76.30;;;;;;5031804;28;20215;-70
2023/06/11 07:06:11;;;;;;;4.50;2.90;;;26.10;79.20;;;;;;5032178;28;20589;-67
2023/06/11 07:08:38;;;;;;;4.17;2.50;;;26.10;78.70;;;;;;5030896;28;20175;-69
2023/06/11 07:11:04;;;;;;;3.60;2.73;;;27.10;78.00;;;;;;5027128;28;20594;-68
2023/06/11 07:13:30;;;;;;;3.90;2.40;;;27.90;73.10;;;;;;5031838;28;20541;-69
2023/06/11 07:15:55;;;;;;;2.40;2.20;;;28.20;71.20;;;;;;5031991;28;20179;-67
2023/06/11 07:18:21;;;;;;;2.83;2.63;;;28.40;72.00;;;;;;5029965;28;20278;-69
2023/06/11 07:20:47;;;;;;;3.73;2.30;;;28.90;69.00;;;;;;5030791;28;20785;-69
2023/06/11 07:23:13;;;;;;;2.67;2.47;;;28.50;69.10;;;;;;5031425;28;20434;-69
2023/06/11 07:25:39;;;;;;;4.87;2.93;;;28.60;70.40;;;;;;5030103;28;20414;-69
2023/06/11 07:28:05;;;;;;;2.43;2.23;;;27.70;71.00;;;;;;5031564;28;20198;-68
2023/06/11 07:30:32;;;;;;;5.33;2.93;;;27.60;72.40;;;;;;5032056;28;20184;-69
2023/06/11 07:32:58;;;;;;;3.87;2.50;;;27.50;72.10;;;;;;5031320;28;20468;-67
2023/06/11 07:35:25;;;;;;;3.10;2.80;;;27.80;70.70;;;;;;5043867;28;20438;-69
2023/06/11 07:37:51;;;;;;;2.87;2.63;;;28.00;69.70;;;;;;5023133;28;20412;-68
2023/06/11 07:40:17;;;;;;;6.10;3.03;;;26.40;74.00;;;;;;5030141;28;20896;-69
2023/06/11 07:42:43;;;;;;;2.60;2.40;;;26.00;77.60;;;;;;5031466;28;20418;-70
2023/06/11 07:45:10;;;;;;;5.57;2.73;;;26.50;75.80;;;;;;5031259;28;20408;-69
2023/06/11 07:47:36;;;;;;;4.40;2.93;;;27.60;74.20;;;;;;5031438;28;20954;-69
2023/06/11 07:50:03;;;;;;;2.10;2.00;;;26.80;73.70;;;;;;5031665;28;20483;-69
2023/06/11 07:52:28;;;;;;;2.63;2.20;;;26.40;76.10;;;;;;5031063;28;20450;-66
2023/06/11 07:54:54;;;;;;;5.80;2.70;;;27.60;73.00;;;;;;5031088;28;20445;-68
2023/06/11 07:57:20;;;;;;;2.80;2.60;;;27.90;73.10;;;;;;5031258;28;20179;-68
2023/06/11 07:59:46;;;;;;;4.00;3.70;;;29.00;68.60;;;;;;5031093;28;20285;-69
2023/06/11 08:02:12;;;;;;;5.77;3.10;;;29.20;67.90;;;;;;5031099;28;20596;-69
2023/06/11 08:04:38;;;;;;;2.90;2.60;;;28.70;69.20;;;;;;5030872;28;20211;-69
2023/06/11 08:07:04;;;;;;;2.70;2.47;;;29.00;69.50;;;;;;5031106;28;20199;-69
2023/06/11 08:09:33;;;;;;;4.20;2.87;;;29.50;66.90;;;;;;5031035;28;20865;-69
2023/06/11 08:11:58;;;;;;;6.17;2.63;;;29.30;66.80;;;;;;5030095;28;20454;-70
2023/06/11 08:14:24;;;;;;;6.13;2.90;;;29.00;67.30;;;;;;5030762;28;20449;-69
2023/06/11 08:16:50;;;;;;;4.87;2.53;;;28.50;68.10;;;;;;5040981;28;20626;-69
2023/06/11 08:19:16;;;;;;;5.73;2.57;;;28.80;69.50;;;;;;5031135;28;20436;-68
2023/06/11 08:21:42;;;;;;;5.23;3.27;;;28.70;68.60;;;;;;5029935;28;20171;-68
2023/06/11 08:24:08;;;;;;;3.53;3.10;;;28.70;70.00;;;;;;5025028;28;20206;-67
2023/06/11 08:26:34;;;;;;;3.47;3.17;;;29.40;66.60;;;;;;5016331;28;20172;-68
2023/06/11 08:29:00;;;;;;;3.80;2.60;;;29.50;66.10;;;;;;5015682;28;20437;-67
2023/06/11 08:31:26;;;;;;;6.33;3.00;;;28.90;67.50;;;;;;5014260;28;20180;-65
2023/06/11 08:33:52;;;;;;;2.97;2.70;;;27.70;71.10;;;;;;5018742;28;20837;-67
2023/06/11 08:36:18;;;;;;;5.33;3.50;;;28.90;68.20;;;;;;5030045;28;20399;-68
2023/06/11 08:38:44;;;;;;;4.80;2.80;;;28.20;69.90;;;;;;5031200;28;20814;-68
2023/06/11 08:41:10;;;;;;;4.17;3.43;;;27.90;71.40;;;;;;5012558;28;20270;-68
2023/06/11 08:43:37;;;;;;;3.20;2.90;;;28.60;70.00;;;;;;5014785;28;20844;-69
2023/06/11 08:46:03;;;;;;;3.73;2.90;;;28.90;68.00;;;;;;5015617;28;20175;-69
2023/06/11 08:48:32;;;;;;;3.23;2.23;;;28.90;66.50;;;;;;5014348;28;20581;-68
2023/06/11 08:51:01;;;;;;;3.00;2.80;;;29.40;66.00;;;;;;5012770;28;20175;-70
2023/06/11 08:53:27;;;;;;;2.83;2.60;;;29.80;65.60;;;;;;5013624;28;20880;-68
2023/06/11 08:55:54;;;;;;;3.53;3.13;;;29.80;66.30;;;;;;5014606;28;20457;-70
2023/06/11 08:58:20;;;;;;;4.40;3.27;;;29.30;67.00;;;;;;5019400;28;20413;-68
2023/06/11 09:00:46;;;;;;;4.87;3.07;;;29.80;65.10;;;;;;5016496;28;20987;-70
2023/06/11 09:03:12;;;;;;;6.43;3.30;;;29.60;65.40;;;;;;5019935;28;20481;-68
2023/06/11 09:05:39;;;;;;;4.13;3.17;;;29.10;66.20;;;;;;5032265;28;20184;-69
2023/06/11 09:08:08;;;;;;;4.27;3.10;;;29.30;65.90;;;;;;5020115;28;20198;-66
2023/06/11 09:10:46;;;;;;;4.37;3.37;;;28.90;67.40;;;;;;5011406;28;20477;-70
2023/06/11 09:13:12;;;;;;;11.03;3.90;;;29.00;67.60;;;;;;5015947;28;20611;-70
2023/06/11 09:15:48;;;;;;;3.60;3.30;;;29.20;66.70;;;;;;5013937;28;20919;-69
2023/06/11 09:18:19;;;;;;;10.10;5.03;;;30.00;65.40;;;;;;5033342;28;20167;-69
2023/06/11 09:20:52;;;;;;;6.00;4.10;;;29.90;64.20;;;;;;5017401;28;20449;-69
2023/06/11 09:23:30;;;;;;;3.83;3.03;;;29.60;65.10;;;;;;5017701;28;20509;-69
2023/06/11 09:25:56;;;;;;;3.20;2.60;;;29.20;67.10;;;;;;5024332;28;20410;-70
2023/06/11 09:28:31;;;;;;;4.07;3.40;;;29.30;65.40;;;;;;5029359;28;20939;-69
2023/06/11 09:30:58;;;;;;;3.23;2.90;;;29.60;64.50;;;;;;5020904;28;20286;-68
2023/06/11 09:33:24;;;;;;;3.70;3.17;;;29.40;64.40;;;;;;5033984;28;20458;-67
2023/06/11 09:35:50;;;;;;;3.63;3.33;;;29.70;65.20;;;;;;5033075;28;20422;-68
2023/06/11 09:38:17;;;;;;;5.30;3.93;;;29.30;65.90;;;;;;5029953;28;20406;-68
2023/06/11 09:40:46;;;;;;;4.70;4.20;;;29.10;68.00;;;;;;5028373;28;20978;-70
2023/06/11 09:43:13;;;;;;;4.50;3.77;;;28.90;67.40;;;;;;5032092;28;20461;-68
2023/06/11 09:45:40;;;;;;;4.07;3.67;;;29.60;66.10;;;;;;5031900;28;20903;-69
2023/06/11 09:48:09;;;;;;;5.63;4.00;;;29.40;64.80;;;;;;5026673;28;20451;-67
2023/06/11 09:50:35;;;;;;;4.53;3.50;;;29.20;67.20;;;;;;5019551;28;20518;-69
2023/06/11 09:53:03;;;;;;;4.47;4.07;;;29.40;65.60;;;;;;5028341;28;20464;-68
2023/06/11 09:55:31;;;;;;;4.27;3.97;;;29.60;65.00;;;;;;5035025;28;20524;-69
2023/06/11 09:57:57;;;;;;;4.00;3.70;;;29.60;64.90;;;;;;5032398;28;20414;-70
2023/06/11 10:00:23;;;;;;;3.83;3.53;;;29.60;64.90;;;;;;5032127;28;20940;-69
2023/06/11 10:02:49;;;;;;;3.90;3.60;;;30.00;64.70;;;;;;5033361;28;20398;-68
2023/06/11 10:05:15;;;;;;;3.93;3.53;;;30.20;64.00;;;;;;5020873;28;20183;-68
2023/06/11 10:07:47;;;;;;;5.10;3.97;;;29.70;63.40;;;;;;5022477;28;20179;-69
2023/06/11 10:10:16;;;;;;;5.63;4.03;;;28.50;66.50;;;;;;5033667;28;20450;-70
2023/06/11 10:12:51;;;;;;;4.33;3.30;;;28.40;66.10;;;;;;5019674;28;20953;-70
2023/06/11 10:15:20;;;;;;;5.10;4.67;;;28.40;67.70;;;;;;5021620;28;20410;-69
2023/06/11 10:17:50;;;;;;;5.87;3.53;;;28.00;67.00;;;;;;5022181;28;20448;-68
2023/06/11 10:20:29;;;;;;;4.30;4.00;;;27.30;68.80;;;;;;5030714;28;20442;-70
2023/06/11 10:23:11;;;;;;;4.83;3.60;;;27.30;70.20;;;;;;5015584;28;20415;-70
2023/06/11 10:25:39;;;;;;;7.23;5.37;;;26.90;68.90;;;;;;5017574;28;20427;-68
2023/06/11 10:28:06;;;;;;;4.97;4.10;;;26.70;71.70;;;;;;5021505;28;20925;-68
2023/06/11 10:30:32;;;;;;;8.13;4.50;;;26.90;72.60;;;;;;5018651;28;20422;-70
2023/06/11 10:32:58;;;;;;;5.07;4.57;;;27.00;72.30;;;;;;5018938;28;20455;-69
2023/06/11 10:35:28;;;;;;;5.30;4.43;;;26.80;72.80;;;;;;5020055;28;20410;-67
2023/06/11 10:38:02;;;;;;;5.00;4.40;;;26.70;73.90;;;;;;5015280;28;20459;-69
2023/06/11 10:40:35;;;;;;;7.87;4.90;;;26.70;73.60;;;;;;5031104;28;20399;-70
2023/06/11 10:43:04;;;;;;;5.97;4.60;;;26.50;72.60;;;;;;5021968;28;20456;-72
2023/06/11 10:45:38;;;;;;;6.13;4.20;;;26.70;70.50;;;;;;5023611;28;20428;-72
2023/06/11 10:48:04;;;;;;;8.33;4.70;;;26.80;70.50;;;;;;5021711;28;20929;-69
2023/06/11 10:50:33;;;;;;;4.70;4.30;;;26.70;71.50;;;;;;5035138;28;20416;-69
2023/06/11 10:53:11;;;;;;;5.30;4.80;;;26.90;71.70;;;;;;5016526;28;20462;-69
2023/06/11 10:55:44;;;;;;;7.10;4.47;;;26.70;73.70;;;;;;5021148;28;20415;-70
2023/06/11 10:58:21;;;;;;;5.13;4.73;;;26.50;73.90;;;;;;5027335;28;20430;-68
2023/06/11 11:00:51;;;;;;;5.20;4.80;;;26.50;74.40;;;;;;5030626;28;20997;-69
2023/06/11 11:03:21;;;;;;;5.90;5.30;;;26.20;75.50;;;;;;5031243;28;20546;-66
2023/06/11 11:05:49;;;;;;;4.37;4.00;;;26.60;73.70;;;;;;5033033;28;20503;-69
2023/06/11 11:08:16;;;;;;;4.80;4.30;;;26.90;72.10;;;;;;5032014;28;20453;-69
2023/06/11 11:10:42;;;;;;;5.40;4.90;;;26.90;69.30;;;;;;5030305;28;20424;-67
2023/06/11 11:13:08;;;;;;;7.40;5.30;;;26.90;69.50;;;;;;5030795;28;20478;-69
2023/06/11 11:15:33;;;;;;;5.10;4.33;;;27.10;69.80;;;;;;5046825;28;20181;-69
2023/06/11 11:17:59;;;;;;;5.27;4.77;;;27.40;69.30;;;;;;5046500;28;20177;-69
2023/06/11 11:20:25;;;;;;;7.50;5.67;;;27.00;69.40;;;;;;5034051;28;20181;-69
2023/06/11 11:22:54;;;;;;;5.70;4.20;;;26.90;69.00;;;;;;5033571;28;20177;-69
2023/06/11 11:25:25;;;;;;;6.13;3.97;;;27.30;69.70;;;;;;5031916;28;20179;-69
2023/06/11 11:27:51;;;;;;;5.20;4.70;;;27.70;68.90;;;;;;5026811;28;20415;-69
2023/06/11 11:30:17;;;;;;;5.03;4.63;;;27.90;67.80;;;;;;5031759;28;20429;-68
2023/06/11 11:32:48;;;;;;;4.60;4.20;;;28.00;66.30;;;;;;5030372;28;20232;-68
2023/06/11 11:35:14;;;;;;;5.43;4.67;;;27.60;67.80;;;;;;5021899;28;20881;-68
2023/06/11 11:37:40;;;;;;;6.20;5.43;;;27.50;66.60;;;;;;5028595;28;20424;-69
2023/06/11 11:40:07;;;;;;;6.93;4.47;;;27.80;67.20;;;;;;5026793;28;20496;-68
2023/06/11 11:42:43;;;;;;;6.00;4.70;;;27.80;67.30;;;;;;5030512;28;20531;-69
2023/06/11 11:45:13;;;;;;;9.43;5.80;;;28.20;65.20;;;;;;5031896;28;20418;-69
2023/06/11 11:47:42;;;;;;;6.03;5.43;;;28.20;66.50;;;;;;5031269;28;20826;-69
2023/06/11 11:50:22;;;;;;;5.67;5.17;;;28.00;66.40;;;;;;5031792;28;20421;-69
2023/06/11 11:53:04;;;;;;;5.53;5.03;;;28.30;66.00;;;;;;5029888;28;20568;-68
2023/06/11 11:55:32;;;;;;;6.93;4.43;;;28.20;67.50;;;;;;5031686;28;20416;-68
2023/06/11 11:58:16;;;;;;;4.60;4.30;;;28.10;66.00;;;;;;5030541;28;20917;-69
2023/06/11 12:00:56;;;;;;;4.93;4.47;;;27.40;71.50;;;;;;5031164;28;20424;-68
2023/06/11 12:03:22;;;;;;;6.20;5.50;;;26.90;73.80;;;;;;5030988;28;20452;-70
2023/06/11 12:06:22;;;;;;;5.27;4.77;;;26.80;73.60;;;;;;5030589;28;20520;-69
2023/06/11 12:08:47;;;;;;;5.97;5.37;;;27.40;73.60;;;;;;5029425;28;20845;-69
2023/06/11 12:11:13;;;;;;;6.30;5.00;;;27.50;73.80;;;;;;5034138;28;20529;-68
2023/06/11 12:13:39;;;;;;;5.67;5.13;;;27.70;67.80;;;;;;5036606;28;20265;-67
2023/06/11 12:16:05;;;;;;;6.50;5.90;;;27.70;68.90;;;;;;5032024;28;20181;-68
2023/06/11 12:18:31;;;;;;;6.50;4.93;;;28.10;69.70;;;;;;5032210;28;20715;-70
2023/06/11 12:20:56;;;;;;;7.77;7.03;;;28.00;72.40;;;;;;5032330;28;20463;-69
2023/06/11 12:23:22;;;;;;;5.60;5.10;;;27.70;72.60;;;;;;5024699;28;20488;-68
2023/06/11 12:25:48;;;;;;;11.63;7.87;;;28.10;73.40;;;;;;5033262;28;20229;-68
2023/06/11 12:28:13;;;;;;;6.43;5.40;;;28.10;73.70;;;;;;5032766;28;20201;-67
2023/06/11 12:30:41;;;;;;;6.23;5.73;;;28.40;73.30;;;;;;5032190;28;20179;-66
2023/06/11 12:33:07;;;;;;;8.53;6.00;;;28.60;73.00;;;;;;5028918;28;20202;-69
2023/06/11 12:35:32;;;;;;;8.30;6.17;;;28.80;72.70;;;;;;5028068;28;20428;-68
2023/06/11 12:38:00;;;;;;;8.30;6.70;;;28.50;72.80;;;;;;5032646;28;20588;-70
2023/06/11 12:40:28;;;;;;;8.07;7.17;;;28.00;74.70;;;;;;5030775;28;20183;-67
2023/06/11 12:42:56;;;;;;;6.73;6.00;;;27.70;75.80;;;;;;5033625;28;20428;-70
2023/06/11 12:45:27;;;;;;;6.60;5.90;;;27.50;77.40;;;;;;5030326;28;20421;-69
2023/06/11 12:47:52;;;;;;;7.73;7.03;;;27.30;77.70;;;;;;5029485;28;20466;-68